createdAt,value
2022-08-21T00:04:00.006Z,1.3
2022-08-21T00:09:44.253Z,1.5
2022-08-21T00:15:29.102Z,1.5
2022-08-21T00:21:15.023Z,1.5
2022-08-21T00:26:58.420Z,1.5
2022-08-21T00:32:42.013Z,1.7
2022-08-21T00:38:26.521Z,1.5
2022-08-21T00:44:11.022Z,1.6
2022-08-21T00:49:54.695Z,1.5
2022-08-21T00:55:41.598Z,1.4
2022-08-21T01:01:25.559Z,1.4
2022-08-21T01:07:09.129Z,1.5
2022-08-21T01:12:52.698Z,1.7
2022-08-21T01:18:35.894Z,1.7
2022-08-21T01:24:20.373Z,1.6
2022-08-21T01:30:08.359Z,1.5
2022-08-21T01:35:51.544Z,1.6
2022-08-21T01:41:34.908Z,1.7
2022-08-21T01:47:20.095Z,1.6
2022-08-21T01:53:04.874Z,1.5
2022-08-21T01:58:48.791Z,1.4
2022-08-21T02:04:31.969Z,1.4
2022-08-21T02:10:17.175Z,1.5
2022-08-21T02:16:00.509Z,1.3
2022-08-21T02:21:45.364Z,1.3
2022-08-21T02:27:29.841Z,1.5
2022-08-21T02:33:22.428Z,1.5
2022-08-21T02:39:05.683Z,1.4
2022-08-21T02:44:50.362Z,1.6
2022-08-21T02:50:35.251Z,1.6
2022-08-21T02:56:21.377Z,1.5
2022-08-21T03:02:04.863Z,1.4
2022-08-21T03:07:50.006Z,1.4
2022-08-21T03:13:34.694Z,1.7
2022-08-21T03:19:20.567Z,1.5
2022-08-21T03:25:07.797Z,1.5
2022-08-21T03:30:56.202Z,1.7
2022-08-21T03:36:39.687Z,1.5
2022-08-21T03:42:24.519Z,1.5
2022-08-21T03:48:09.397Z,1.5
2022-08-21T03:53:53.992Z,1.5
2022-08-21T03:59:37.497Z,1.4
2022-08-21T04:05:22.538Z,1.7
2022-08-21T04:11:10.087Z,1.5
2022-08-21T04:16:53.459Z,1.4
2022-08-21T04:22:36.718Z,1.4
2022-08-21T04:28:20.465Z,1.6
2022-08-21T04:34:06.750Z,1.7
2022-08-21T04:39:55.112Z,1.8
2022-08-21T04:45:40.375Z,1.6
2022-08-21T04:51:31.917Z,1.4
2022-08-21T04:57:16.833Z,1.6
2022-08-21T05:03:01.491Z,1.6
2022-08-21T05:08:46.258Z,1.6
2022-08-21T05:14:30.866Z,1.8
2022-08-21T05:20:16.008Z,1.9
2022-08-21T05:26:00.619Z,1.9
2022-08-21T05:31:44.091Z,1.9
2022-08-21T05:37:27.330Z,2
2022-08-21T05:43:11.962Z,2.2
2022-08-21T05:48:55.671Z,3.3
2022-08-21T05:54:39.418Z,3.5
2022-08-21T06:00:22.886Z,4.1
2022-08-21T06:06:07.762Z,4.2
2022-08-21T06:11:51.246Z,4.5
2022-08-21T06:17:34.551Z,5
2022-08-21T06:23:17.927Z,4.4
2022-08-21T06:29:02.446Z,4.7
2022-08-21T06:34:45.922Z,3.6
2022-08-21T06:40:35.923Z,3.7
2022-08-21T06:46:31.223Z,3.1
2022-08-21T06:52:15.933Z,2.7
2022-08-21T06:58:00.375Z,2.4
2022-08-21T07:03:45.862Z,2.6
2022-08-21T07:09:29.191Z,2.5
2022-08-21T07:15:14.194Z,1.8
2022-08-21T07:20:57.771Z,1.6
2022-08-21T07:26:41.096Z,2.2
2022-08-21T07:32:24.511Z,3.3
2022-08-21T07:38:07.744Z,3
2022-08-21T07:43:54.587Z,3
2022-08-21T07:49:39.169Z,3.7
2022-08-21T07:55:23.071Z,2.9
2022-08-21T08:01:07.809Z,3.6
2022-08-21T08:06:51.342Z,4
2022-08-21T08:12:34.769Z,4
2022-08-21T08:18:18.194Z,2.8
2022-08-21T08:24:17.962Z,3.5
2022-08-21T08:30:02.339Z,3.4
2022-08-21T08:35:47.759Z,3.4
2022-08-21T08:41:33.328Z,3.8
2022-08-21T08:47:19.465Z,3.3
2022-08-21T08:53:07.794Z,2.8
2022-08-21T08:58:54.878Z,4.1
2022-08-21T09:04:39.019Z,5.3
2022-08-21T09:10:24.210Z,6.2
2022-08-21T09:16:14.219Z,5.2
2022-08-21T09:22:03.099Z,5.5
2022-08-21T09:27:47.739Z,5.1
2022-08-21T09:33:30.974Z,4.7
2022-08-21T09:39:15.730Z,4.3
2022-08-21T09:45:10.142Z,4
2022-08-21T09:50:54.110Z,3.8
2022-08-21T09:56:39.558Z,3.7
2022-08-21T10:02:27.285Z,3.6
2022-08-21T10:08:15.638Z,3.2
2022-08-21T10:14:04.487Z,2.8
2022-08-21T10:19:52.950Z,2.5
2022-08-21T10:25:52.030Z,2.5
2022-08-21T10:31:42.747Z,2.6
2022-08-21T10:37:33.241Z,2.3
2022-08-21T10:43:24.619Z,2.1
2022-08-21T10:49:13.987Z,2.2
2022-08-21T10:54:58.819Z,2.1
2022-08-21T11:00:44.282Z,2.1
2022-08-21T11:06:29.755Z,1.9
2022-08-21T11:12:25.664Z,1.8
2022-08-21T11:18:15.855Z,1.7
2022-08-21T11:24:02.457Z,1.9
2022-08-21T11:29:50.338Z,1.6
2022-08-21T11:35:36.215Z,2.2
2022-08-21T11:41:25.727Z,1.4
2022-08-21T11:47:14.222Z,1.5
2022-08-21T11:53:02.778Z,1.6
2022-08-21T11:58:47.780Z,1.5
2022-08-21T12:04:33.953Z,1.7
2022-08-21T12:10:20.909Z,1.5
2022-08-21T12:16:12.765Z,1.6
2022-08-21T12:22:00.658Z,1.7
2022-08-21T12:27:48.899Z,1.7
2022-08-21T12:33:35.072Z,1.8
2022-08-21T12:39:23.765Z,1.6
2022-08-21T12:45:12.478Z,1.6
2022-08-21T12:50:57.055Z,1.7
2022-08-21T12:56:40.435Z,1.5
2022-08-21T13:02:25.702Z,1.4
2022-08-21T13:08:11.886Z,1.4
2022-08-21T13:14:02.518Z,1.8
2022-08-21T13:19:53.235Z,1.6
2022-08-21T13:25:40.138Z,1.4
2022-08-21T13:31:29.606Z,1.5
2022-08-21T13:37:13.891Z,1.5
2022-08-21T13:42:57.961Z,1.6
2022-08-21T13:48:41.880Z,1.5
2022-08-21T13:54:28.311Z,1.5
2022-08-21T14:00:25.866Z,1.6
2022-08-21T14:06:13.506Z,1.4
2022-08-21T14:11:57.369Z,1.3
2022-08-21T14:17:43.712Z,1.4
2022-08-21T14:23:30.641Z,1.4
2022-08-21T14:29:17.075Z,1.5
2022-08-21T14:35:01.382Z,1.4
2022-08-21T14:40:45.433Z,1.1
2022-08-21T14:46:31.517Z,1.6
2022-08-21T14:52:16.241Z,2
2022-08-21T14:58:00.666Z,1.5
2022-08-21T15:03:45.770Z,2.3
2022-08-21T15:09:29.478Z,1.7
2022-08-21T15:15:18.422Z,1.7
2022-08-21T15:21:03.259Z,1.9
2022-08-21T15:26:48.323Z,1.7
2022-08-21T15:32:31.522Z,1.6
2022-08-21T15:38:15.446Z,1.5
2022-08-21T15:43:58.946Z,1.7
2022-08-21T15:49:42.319Z,1.7
2022-08-21T15:55:26.791Z,1.6
2022-08-21T16:01:11.654Z,1.5
2022-08-21T16:07:09.437Z,1.8
2022-08-21T16:12:56.758Z,1.9
2022-08-21T16:18:40.638Z,1.6
2022-08-21T16:24:25.155Z,1.4
2022-08-21T16:30:12.097Z,1.9
2022-08-21T16:35:55.566Z,1.7
2022-08-21T16:41:38.926Z,1.5
2022-08-21T16:47:28.469Z,1.7
2022-08-21T16:53:11.666Z,1.7
2022-08-21T16:58:56.609Z,1.6
2022-08-21T17:04:39.877Z,1.5
2022-08-21T17:10:24.729Z,1.7
2022-08-21T17:16:09.324Z,1.5
2022-08-21T17:21:52.754Z,1.5
2022-08-21T17:27:36.150Z,1.7
2022-08-21T17:33:21.653Z,1.8
2022-08-21T17:39:05.497Z,1.7
2022-08-21T17:44:49.022Z,1.7
2022-08-21T17:50:33.655Z,1.8
2022-08-21T17:56:19.427Z,1.8
2022-08-21T18:02:19.454Z,1.5
2022-08-21T18:08:03.142Z,1.5
2022-08-21T18:13:46.391Z,1.7
2022-08-21T18:19:31.067Z,1.7
2022-08-21T18:25:15.207Z,1.8
2022-08-21T18:31:00.068Z,1.5
2022-08-21T18:36:44.696Z,1.5
2022-08-21T18:42:30.986Z,1.4
2022-08-21T18:48:16.998Z,1.6
2022-08-21T18:54:00.275Z,1.7
2022-08-21T18:59:45.982Z,1.5
2022-08-21T19:05:32.572Z,1.7
2022-08-21T19:11:25.158Z,1.8
2022-08-21T19:17:08.731Z,1.7
2022-08-21T19:22:55.430Z,1.7
2022-08-21T19:28:45.812Z,1.4
2022-08-21T19:34:31.060Z,1.6
2022-08-21T19:40:15.874Z,1.5
2022-08-21T19:46:01.147Z,1.5
2022-08-21T19:51:45.664Z,1.4
2022-08-21T19:57:29.294Z,1.4
2022-08-21T20:03:12.827Z,1.2
2022-08-21T20:08:57.138Z,1.6
2022-08-21T20:14:43.159Z,1.3
2022-08-21T20:20:32.541Z,1.4
2022-08-21T20:26:19.366Z,1.6
2022-08-21T20:32:05.016Z,1.3
2022-08-21T20:37:59.966Z,1.2
2022-08-21T20:43:45.448Z,1.3
2022-08-21T20:49:36.488Z,1.4
2022-08-21T20:55:30.218Z,1.3
2022-08-21T21:01:17.521Z,1.5
2022-08-21T21:07:06.422Z,1.6
2022-08-21T21:12:55.527Z,1.4
2022-08-21T21:18:43.410Z,1.3
2022-08-21T21:24:34.799Z,1.3
2022-08-21T21:30:22.777Z,1.5
2022-08-21T21:36:19.045Z,1.2
2022-08-21T21:42:10.991Z,1.2
2022-08-21T21:47:59.349Z,1.3
2022-08-21T21:53:53.547Z,1.3
2022-08-21T21:59:44.715Z,1.3
2022-08-21T22:05:35.099Z,1.4
2022-08-21T22:11:30.518Z,1.1
2022-08-21T22:17:19.094Z,1.4
2022-08-21T22:23:11.248Z,1.4
2022-08-21T22:29:07.738Z,1.4
2022-08-21T22:35:01.715Z,1.3
2022-08-21T22:40:45.720Z,1.3
2022-08-21T22:46:37.271Z,1.4
2022-08-21T22:52:27.626Z,1.3
2022-08-21T22:58:18.239Z,1.4
2022-08-21T23:04:07.892Z,1.6
2022-08-21T23:09:57.554Z,1.7
2022-08-21T23:15:46.320Z,1.4
2022-08-21T23:21:41.649Z,1.5
2022-08-21T23:27:37.423Z,1.3
2022-08-21T23:33:39.567Z,1.4
2022-08-21T23:39:29.923Z,1.3
2022-08-21T23:45:20.007Z,1.9
2022-08-21T23:51:14.356Z,1.5
2022-08-21T23:57:11.773Z,1.4
